sensor_id;sensor_type;location;lat;lon;timestamp;pressure;altitude;pressure_sealevel;temperature;humidity
22550;BME280;11441;57.164;-2.120;2022-07-01T00:01:54;100551.56;;;16.13;100.00
22550;BME280;11441;57.164;-2.120;2022-07-01T00:04:22;100550.34;;;16.21;100.00
22550;BME280;11441;57.164;-2.120;2022-07-01T00:07:12;100554.69;;;16.51;100.00
22550;BME280;11441;57.164;-2.120;2022-07-01T00:09:39;100556.69;;;16.47;100.00
22550;BME280;11441;57.164;-2.120;2022-07-01T00:12:07;100559.06;;;16.37;100.00
22550;BME280;11441;57.164;-2.120;2022-07-01T00:14:34;100558.28;;;16.44;100.00
22550;BME280;11441;57.164;-2.120;2022-07-01T00:17:00;100562.63;;;16.06;100.00
22550;BME280;11441;57.164;-2.120;2022-07-01T00:19:28;100555.50;;;16.30;100.00
22550;BME280;11441;57.164;-2.120;2022-07-01T00:21:55;100556.69;;;16.43;100.00
22550;BME280;11441;57.164;-2.120;2022-07-01T00:24:22;100559.88;;;16.34;100.00
22550;BME280;11441;57.164;-2.120;2022-07-01T00:26:48;100562.22;;;16.54;100.00
22550;BME280;11441;57.164;-2.120;2022-07-01T00:29:16;100562.63;;;16.52;100.00
22550;BME280;11441;57.164;-2.120;2022-07-01T00:31:43;100559.44;;;16.57;100.00
22550;BME280;11441;57.164;-2.120;2022-07-01T00:34:10;100554.69;;;16.62;100.00
22550;BME280;11441;57.164;-2.120;2022-07-01T00:36:37;100545.19;;;16.34;100.00
22550;BME280;11441;57.164;-2.120;2022-07-01T00:39:03;100542.38;;;16.59;100.00
22550;BME280;11441;57.164;-2.120;2022-07-01T00:41:30;100550.34;;;16.43;100.00
22550;BME280;11441;57.164;-2.120;2022-07-01T00:43:57;100542.00;;;16.43;100.00
22550;BME280;11441;57.164;-2.120;2022-07-01T00:46:25;100541.97;;;16.53;100.00
22550;BME280;11441;57.164;-2.120;2022-07-01T00:48:54;100544.78;;;16.43;100.00
22550;BME280;11441;57.164;-2.120;2022-07-01T00:51:22;100551.50;;;16.59;100.00
22550;BME280;11441;57.164;-2.120;2022-07-01T00:53:49;100547.94;;;16.55;100.00
22550;BME280;11441;57.164;-2.120;2022-07-01T00:56:17;100549.13;;;16.54;100.00
22550;BME280;11441;57.164;-2.120;2022-07-01T00:58:44;100551.13;;;16.36;100.00
22550;BME280;11441;57.164;-2.120;2022-07-01T01:01:12;100558.28;;;16.26;100.00
22550;BME280;11441;57.164;-2.120;2022-07-01T01:03:39;100551.13;;;16.14;100.00
22550;BME280;11441;57.164;-2.120;2022-07-01T01:06:06;100553.53;;;16.34;100.00
22550;BME280;11441;57.164;-2.120;2022-07-01T01:08:33;100556.28;;;16.12;100.00
22550;BME280;11441;57.164;-2.120;2022-07-01T01:11:00;100560.66;;;16.20;100.00
22550;BME280;11441;57.164;-2.120;2022-07-01T01:13:27;100550.34;;;16.25;100.00
22550;BME280;11441;57.164;-2.120;2022-07-01T01:15:53;100559.06;;;16.09;100.00
22550;BME280;11441;57.164;-2.120;2022-07-01T01:18:20;100562.22;;;15.96;100.00
22550;BME280;11441;57.164;-2.120;2022-07-01T01:20:47;100562.25;;;16.03;100.00
22550;BME280;11441;57.164;-2.120;2022-07-01T01:23:14;100562.22;;;15.75;100.00
22550;BME280;11441;57.164;-2.120;2022-07-01T01:25:41;100565.78;;;15.86;100.00
22550;BME280;11441;57.164;-2.120;2022-07-01T01:28:08;100561.84;;;15.87;100.00
22550;BME280;11441;57.164;-2.120;2022-07-01T01:30:35;100556.28;;;16.01;100.00
22550;BME280;11441;57.164;-2.120;2022-07-01T01:33:02;100561.84;;;16.05;100.00
22550;BME280;11441;57.164;-2.120;2022-07-01T01:35:29;100562.25;;;16.07;100.00
22550;BME280;11441;57.164;-2.120;2022-07-01T01:37:58;100559.47;;;16.03;100.00
22550;BME280;11441;57.164;-2.120;2022-07-01T01:40:25;100558.28;;;16.19;100.00
22550;BME280;11441;57.164;-2.120;2022-07-01T01:42:52;100555.13;;;16.02;100.00
22550;BME280;11441;57.164;-2.120;2022-07-01T01:45:19;100552.34;;;16.17;100.00
22550;BME280;11441;57.164;-2.120;2022-07-01T01:47:46;100543.59;;;16.04;100.00
22550;BME280;11441;57.164;-2.120;2022-07-01T01:50:14;100547.94;;;15.91;100.00
22550;BME280;11441;57.164;-2.120;2022-07-01T01:52:41;100550.34;;;15.99;100.00
22550;BME280;11441;57.164;-2.120;2022-07-01T01:55:10;100545.97;;;15.91;100.00
22550;BME280;11441;57.164;-2.120;2022-07-01T01:57:37;100552.72;;;15.97;100.00
22550;BME280;11441;57.164;-2.120;2022-07-01T02:00:06;100542.78;;;15.93;100.00
22550;BME280;11441;57.164;-2.120;2022-07-01T02:02:37;100542.41;;;15.80;100.00
22550;BME280;11441;57.164;-2.120;2022-07-01T02:05:06;100540.41;;;15.95;100.00
22550;BME280;11441;57.164;-2.120;2022-07-01T02:07:34;100532.06;;;15.98;100.00
22550;BME280;11441;57.164;-2.120;2022-07-01T02:10:02;100532.91;;;16.02;100.00
22550;BME280;11441;57.164;-2.120;2022-07-01T02:12:29;100531.28;;;15.94;100.00
22550;BME280;11441;57.164;-2.120;2022-07-01T02:14:56;100527.31;;;15.81;100.00
22550;BME280;11441;57.164;-2.120;2022-07-01T02:17:23;100522.16;;;15.79;100.00
22550;BME280;11441;57.164;-2.120;2022-07-01T02:19:52;100524.88;;;15.61;100.00
22550;BME280;11441;57.164;-2.120;2022-07-01T02:22:19;100521.31;;;15.57;100.00
22550;BME280;11441;57.164;-2.120;2022-07-01T02:24:46;100520.09;;;15.58;100.00
22550;BME280;11441;57.164;-2.120;2022-07-01T02:27:13;100516.94;;;15.56;100.00
22550;BME280;11441;57.164;-2.120;2022-07-01T02:29:39;100528.03;;;15.63;100.00
22550;BME280;11441;57.164;-2.120;2022-07-01T02:32:08;100522.09;;;15.54;100.00
22550;BME280;11441;57.164;-2.120;2022-07-01T02:34:35;100530.00;;;15.45;100.00
22550;BME280;11441;57.164;-2.120;2022-07-01T02:37:03;100533.53;;;15.35;100.00
22550;BME280;11441;57.164;-2.120;2022-07-01T02:39:32;100535.91;;;15.33;100.00
22550;BME280;11441;57.164;-2.120;2022-07-01T02:41:59;100539.88;;;15.35;100.00
22550;BME280;11441;57.164;-2.120;2022-07-01T02:44:45;100539.78;;;15.10;100.00
22550;BME280;11441;57.164;-2.120;2022-07-01T02:47:11;100547.66;;;15.01;100.00
22550;BME280;11441;57.164;-2.120;2022-07-01T02:49:38;100542.22;;;15.19;100.00
22550;BME280;11441;57.164;-2.120;2022-07-01T02:52:06;100536.66;;;15.22;100.00
22550;BME280;11441;57.164;-2.120;2022-07-01T02:54:33;100542.66;;;15.35;100.00
22550;BME280;11441;57.164;-2.120;2022-07-01T02:57:01;100539.50;;;15.51;100.00
22550;BME280;11441;57.164;-2.120;2022-07-01T02:59:28;100539.06;;;15.31;100.00
22550;BME280;11441;57.164;-2.120;2022-07-01T03:01:55;100537.41;;;15.12;100.00
22550;BME280;11441;57.164;-2.120;2022-07-01T03:04:22;100527.44;;;14.97;100.00
22550;BME280;11441;57.164;-2.120;2022-07-01T03:06:49;100518.69;;;14.84;100.00
22550;BME280;11441;57.164;-2.120;2022-07-01T03:09:16;100536.91;;;14.92;100.00
22550;BME280;11441;57.164;-2.120;2022-07-01T03:11:43;100542.13;;;15.04;100.00
22550;BME280;11441;57.164;-2.120;2022-07-01T03:14:10;100537.31;;;14.90;100.00
22550;BME280;11441;57.164;-2.120;2022-07-01T03:16:37;100544.75;;;14.72;100.00
22550;BME280;11441;57.164;-2.120;2022-07-01T03:19:04;100540.06;;;14.87;100.00
22550;BME280;11441;57.164;-2.120;2022-07-01T03:21:32;100541.16;;;14.71;100.00
22550;BME280;11441;57.164;-2.120;2022-07-01T03:23:59;100544.75;;;14.72;100.00
22550;BME280;11441;57.164;-2.120;2022-07-01T03:26:26;100532.94;;;14.82;100.00
22550;BME280;11441;57.164;-2.120;2022-07-01T03:28:53;100530.22;;;14.97;100.00
22550;BME280;11441;57.164;-2.120;2022-07-01T03:31:20;100527.47;;;15.04;100.00
22550;BME280;11441;57.164;-2.120;2022-07-01T03:33:47;100534.63;;;15.05;100.00
22550;BME280;11441;57.164;-2.120;2022-07-01T03:36:14;100531.75;;;14.87;100.00
22550;BME280;11441;57.164;-2.120;2022-07-01T03:38:41;100527.75;;;14.81;100.00
22550;BME280;11441;57.164;-2.120;2022-07-01T03:41:09;100536.09;;;14.81;100.00
22550;BME280;11441;57.164;-2.120;2022-07-01T03:43:36;100529.81;;;14.95;100.00
22550;BME280;11441;57.164;-2.120;2022-07-01T03:46:03;100539.59;;;14.74;100.00
22550;BME280;11441;57.164;-2.120;2022-07-01T03:48:30;100536.88;;;14.81;100.00
22550;BME280;11441;57.164;-2.120;2022-07-01T03:50:57;100532.03;;;14.67;100.00
22550;BME280;11441;57.164;-2.120;2022-07-01T03:53:24;100539.31;;;14.94;100.00
22550;BME280;11441;57.164;-2.120;2022-07-01T03:56:09;100540.88;;;14.87;100.00
22550;BME280;11441;57.164;-2.120;2022-07-01T03:58:36;100533.41;;;15.02;100.00
22550;BME280;11441;57.164;-2.120;2022-07-01T04:01:03;100532.59;;;14.95;100.00
22550;BME280;11441;57.164;-2.120;2022-07-01T04:03:30;100531.41;;;15.03;100.00
22550;BME280;11441;57.164;-2.120;2022-07-01T04:05:57;100529.84;;;15.05;100.00
22550;BME280;11441;57.164;-2.120;2022-07-01T04:08:24;100537.00;;;15.06;100.00
22550;BME280;11441;57.164;-2.120;2022-07-01T04:10:51;100537.03;;;15.10;100.00
22550;BME280;11441;57.164;-2.120;2022-07-01T04:13:20;100552.03;;;15.05;100.00
22550;BME280;11441;57.164;-2.120;2022-07-01T04:15:58;100555.53;;;14.92;100.00
22550;BME280;11441;57.164;-2.120;2022-07-01T04:18:27;100547.63;;;14.94;100.00
22550;BME280;11441;57.164;-2.120;2022-07-01T04:20:54;100552.84;;;15.06;100.00
22550;BME280;11441;57.164;-2.120;2022-07-01T04:23:40;100550.09;;;15.13;100.00
22550;BME280;11441;57.164;-2.120;2022-07-01T04:26:07;100547.31;;;15.13;100.00
22550;BME280;11441;57.164;-2.120;2022-07-01T04:28:55;100563.66;;;15.33;100.00
22550;BME280;11441;57.164;-2.120;2022-07-01T04:31:22;100567.56;;;15.21;100.00
22550;BME280;11441;57.164;-2.120;2022-07-01T04:33:49;100558.38;;;15.06;100.00
22550;BME280;11441;57.164;-2.120;2022-07-01T04:36:17;100557.19;;;15.00;100.00
22550;BME280;11441;57.164;-2.120;2022-07-01T04:38:44;100558.00;;;15.11;100.00
22550;BME280;11441;57.164;-2.120;2022-07-01T04:41:11;100563.13;;;15.02;100.00
22550;BME280;11441;57.164;-2.120;2022-07-01T04:43:57;100556.00;;;15.08;100.00
22550;BME280;11441;57.164;-2.120;2022-07-01T04:46:24;100559.13;;;14.99;100.00
22550;BME280;11441;57.164;-2.120;2022-07-01T04:48:51;100567.91;;;15.05;100.00
22550;BME280;11441;57.164;-2.120;2022-07-01T04:51:18;100571.81;;;15.00;100.00
22550;BME280;11441;57.164;-2.120;2022-07-01T04:53:46;100573.34;;;14.90;100.00
22550;BME280;11441;57.164;-2.120;2022-07-01T04:56:13;100573.06;;;15.06;100.00
22550;BME280;11441;57.164;-2.120;2022-07-01T04:58:40;100580.94;;;15.01;100.00
22550;BME280;11441;57.164;-2.120;2022-07-01T05:01:07;100584.09;;;15.03;100.00
22550;BME280;11441;57.164;-2.120;2022-07-01T05:03:34;100587.19;;;14.87;100.00
22550;BME280;11441;57.164;-2.120;2022-07-01T05:06:01;100601.94;;;14.98;100.00
22550;BME280;11441;57.164;-2.120;2022-07-01T05:08:28;100605.94;;;15.08;100.00
22550;BME280;11441;57.164;-2.120;2022-07-01T05:10:55;100598.44;;;15.12;100.00
22550;BME280;11441;57.164;-2.120;2022-07-01T05:13:22;100586.94;;;15.10;100.00
22550;BME280;11441;57.164;-2.120;2022-07-01T05:15:50;100594.00;;;14.97;100.00
22550;BME280;11441;57.164;-2.120;2022-07-01T05:18:17;100599.13;;;14.95;100.00
22550;BME280;11441;57.164;-2.120;2022-07-01T05:21:02;100604.66;;;14.87;100.00
22550;BME280;11441;57.164;-2.120;2022-07-01T05:23:48;100596.75;;;14.93;100.00
22550;BME280;11441;57.164;-2.120;2022-07-01T05:26:14;100591.97;;;14.90;100.00
22550;BME280;11441;57.164;-2.120;2022-07-01T05:28:45;100587.53;;;14.78;100.00
22550;BME280;11441;57.164;-2.120;2022-07-01T05:31:14;100589.97;;;14.87;100.00
22550;BME280;11441;57.164;-2.120;2022-07-01T05:33:41;100587.13;;;14.76;100.00
22550;BME280;11441;57.164;-2.120;2022-07-01T05:36:09;100579.91;;;14.61;100.00
22550;BME280;11441;57.164;-2.120;2022-07-01T05:38:36;100586.97;;;14.55;100.00
22550;BME280;11441;57.164;-2.120;2022-07-01T05:41:04;100585.66;;;14.41;100.00
22550;BME280;11441;57.164;-2.120;2022-07-01T05:43:31;100584.84;;;14.37;100.00
22550;BME280;11441;57.164;-2.120;2022-07-01T05:45:58;100589.56;;;14.33;100.00
22550;BME280;11441;57.164;-2.120;2022-07-01T05:48:25;100585.16;;;14.25;100.00
22550;BME280;11441;57.164;-2.120;2022-07-01T05:50:52;100588.38;;;14.30;100.00
22550;BME280;11441;57.164;-2.120;2022-07-01T05:53:19;100588.84;;;14.43;100.00
22550;BME280;11441;57.164;-2.120;2022-07-01T05:55:46;100609.50;;;14.49;100.00
22550;BME280;11441;57.164;-2.120;2022-07-01T05:58:14;100602.66;;;14.36;100.00
22550;BME280;11441;57.164;-2.120;2022-07-01T06:00:41;100586.44;;;14.38;100.00
22550;BME280;11441;57.164;-2.120;2022-07-01T06:03:09;100578.78;;;14.21;100.00
22550;BME280;11441;57.164;-2.120;2022-07-01T06:05:37;100583.56;;;14.24;100.00
22550;BME280;11441;57.164;-2.120;2022-07-01T06:08:04;100593.66;;;14.05;100.00
22550;BME280;11441;57.164;-2.120;2022-07-01T06:10:33;100599.81;;;14.29;100.00
22550;BME280;11441;57.164;-2.120;2022-07-01T06:13:01;100609.66;;;14.23;100.00
22550;BME280;11441;57.164;-2.120;2022-07-01T06:15:28;100598.16;;;14.21;100.00
22550;BME280;11441;57.164;-2.120;2022-07-01T06:17:56;100598.75;;;14.44;100.00
22550;BME280;11441;57.164;-2.120;2022-07-01T06:20:23;100596.75;;;14.41;100.00
22550;BME280;11441;57.164;-2.120;2022-07-01T06:22:50;100605.81;;;14.38;100.00
22550;BME280;11441;57.164;-2.120;2022-07-01T06:25:17;100599.13;;;14.39;100.00
22550;BME280;11441;57.164;-2.120;2022-07-01T06:27:44;100606.97;;;14.30;100.00
22550;BME280;11441;57.164;-2.120;2022-07-01T06:30:12;100601.44;;;14.33;100.00
22550;BME280;11441;57.164;-2.120;2022-07-01T06:32:40;100600.38;;;14.49;100.00
22550;BME280;11441;57.164;-2.120;2022-07-01T06:35:07;100580.44;;;14.29;100.00
22550;BME280;11441;57.164;-2.120;2022-07-01T06:37:34;100592.38;;;14.40;100.00
22550;BME280;11441;57.164;-2.120;2022-07-01T06:40:04;100588.13;;;14.50;100.00
22550;BME280;11441;57.164;-2.120;2022-07-01T06:42:32;100592.47;;;14.47;100.00
22550;BME280;11441;57.164;-2.120;2022-07-01T06:45:00;100583.78;;;14.52;100.00
22550;BME280;11441;57.164;-2.120;2022-07-01T06:47:27;100590.84;;;14.46;100.00
22550;BME280;11441;57.164;-2.120;2022-07-01T06:49:54;100575.84;;;14.51;100.00
22550;BME280;11441;57.164;-2.120;2022-07-01T06:52:25;100574.63;;;14.45;100.00
22550;BME280;11441;57.164;-2.120;2022-07-01T06:54:51;100580.91;;;14.42;100.00
22550;BME280;11441;57.164;-2.120;2022-07-01T06:57:18;100579.03;;;14.53;100.00
22550;BME280;11441;57.164;-2.120;2022-07-01T06:59:45;100572.56;;;14.38;100.00
22550;BME280;11441;57.164;-2.120;2022-07-01T07:02:12;100559.53;;;14.35;100.00
22550;BME280;11441;57.164;-2.120;2022-07-01T07:04:39;100564.78;;;14.51;100.00
22550;BME280;11441;57.164;-2.120;2022-07-01T07:07:26;100556.19;;;14.63;100.00
22550;BME280;11441;57.164;-2.120;2022-07-01T07:09:53;100543.59;;;14.21;100.00
22550;BME280;11441;57.164;-2.120;2022-07-01T07:12:20;100552.06;;;14.46;100.00
22550;BME280;11441;57.164;-2.120;2022-07-01T07:14:47;100552.91;;;14.54;100.00
22550;BME280;11441;57.164;-2.120;2022-07-01T07:17:14;100557.69;;;14.57;100.00
22550;BME280;11441;57.164;-2.120;2022-07-01T07:19:41;100561.09;;;14.92;100.00
22550;BME280;11441;57.164;-2.120;2022-07-01T07:22:08;100571.78;;;14.93;100.00
22550;BME280;11441;57.164;-2.120;2022-07-01T07:24:35;100581.69;;;14.94;100.00
22550;BME280;11441;57.164;-2.120;2022-07-01T07:27:02;100577.84;;;15.20;100.00
22550;BME280;11441;57.164;-2.120;2022-07-01T07:29:29;100572.28;;;15.17;100.00
22550;BME280;11441;57.164;-2.120;2022-07-01T07:31:56;100578.28;;;15.22;100.00
22550;BME280;11441;57.164;-2.120;2022-07-01T07:34:24;100581.50;;;15.39;100.00
22550;BME280;11441;57.164;-2.120;2022-07-01T07:36:51;100585.50;;;15.41;100.00
22550;BME280;11441;57.164;-2.120;2022-07-01T07:39:18;100587.09;;;15.53;100.00
22550;BME280;11441;57.164;-2.120;2022-07-01T07:41:45;100589.09;;;15.53;100.00
22550;BME280;11441;57.164;-2.120;2022-07-01T07:44:12;100588.28;;;15.41;100.00
22550;BME280;11441;57.164;-2.120;2022-07-01T07:46:38;100584.25;;;15.32;100.00
22550;BME280;11441;57.164;-2.120;2022-07-01T07:49:06;100586.69;;;15.51;100.00
22550;BME280;11441;57.164;-2.120;2022-07-01T07:51:33;100596.28;;;15.72;100.00
22550;BME280;11441;57.164;-2.120;2022-07-01T07:54:00;100591.56;;;15.79;100.00
22550;BME280;11441;57.164;-2.120;2022-07-01T07:56:30;100592.28;;;15.58;100.00
22550;BME280;11441;57.164;-2.120;2022-07-01T07:58:57;100597.44;;;15.71;100.00
22550;BME280;11441;57.164;-2.120;2022-07-01T08:01:25;100588.34;;;15.74;100.00
22550;BME280;11441;57.164;-2.120;2022-07-01T08:03:52;100595.53;;;15.75;100.00
22550;BME280;11441;57.164;-2.120;2022-07-01T08:06:19;100594.38;;;15.87;100.00
22550;BME280;11441;57.164;-2.120;2022-07-01T08:08:46;100589.47;;;15.51;100.00
22550;BME280;11441;57.164;-2.120;2022-07-01T08:11:13;100587.03;;;15.32;100.00
22550;BME280;11441;57.164;-2.120;2022-07-01T08:13:40;100583.13;;;15.47;100.00
22550;BME280;11441;57.164;-2.120;2022-07-01T08:16:08;100578.84;;;15.71;100.00
22550;BME280;11441;57.164;-2.120;2022-07-01T08:18:36;100584.78;;;15.73;100.00
22550;BME280;11441;57.164;-2.120;2022-07-01T08:21:03;100585.97;;;15.69;100.00
22550;BME280;11441;57.164;-2.120;2022-07-01T08:23:30;100555.91;;;15.89;100.00
22550;BME280;11441;57.164;-2.120;2022-07-01T08:25:57;100583.56;;;15.63;100.00
22550;BME280;11441;57.164;-2.120;2022-07-01T08:28:24;100578.78;;;15.53;100.00
22550;BME280;11441;57.164;-2.120;2022-07-01T08:30:51;100574.03;;;15.57;100.00
22550;BME280;11441;57.164;-2.120;2022-07-01T08:33:18;100579.84;;;15.23;100.00
22550;BME280;11441;57.164;-2.120;2022-07-01T08:35:45;100568.88;;;15.49;100.00
22550;BME280;11441;57.164;-2.120;2022-07-01T08:38:12;100570.06;;;15.55;100.00
22550;BME280;11441;57.164;-2.120;2022-07-01T08:40:40;100568.56;;;15.93;100.00
22550;BME280;11441;57.164;-2.120;2022-07-01T08:43:07;100568.19;;;15.91;100.00
22550;BME280;11441;57.164;-2.120;2022-07-01T08:45:36;100570.97;;;15.91;100.00
22550;BME280;11441;57.164;-2.120;2022-07-01T08:48:05;100565.41;;;15.84;100.00
22550;BME280;11441;57.164;-2.120;2022-07-01T08:50:40;100571.34;;;15.93;100.00
22550;BME280;11441;57.164;-2.120;2022-07-01T08:53:09;100562.63;;;15.98;100.00
22550;BME280;11441;57.164;-2.120;2022-07-01T08:55:36;100569.38;;;15.87;100.00
22550;BME280;11441;57.164;-2.120;2022-07-01T08:58:24;100563.84;;;15.94;100.00
22550;BME280;11441;57.164;-2.120;2022-07-01T09:00:52;100567.00;;;15.92;100.00
22550;BME280;11441;57.164;-2.120;2022-07-01T09:03:26;100569.78;;;16.10;100.00
22550;BME280;11441;57.164;-2.120;2022-07-01T09:05:53;100563.84;;;16.15;100.00
22550;BME280;11441;57.164;-2.120;2022-07-01T09:08:26;100568.16;;;15.84;100.00
22550;BME280;11441;57.164;-2.120;2022-07-01T09:10:54;100560.25;;;15.90;100.00
22550;BME280;11441;57.164;-2.120;2022-07-01T09:13:21;100555.06;;;15.77;100.00
22550;BME280;11441;57.164;-2.120;2022-07-01T09:15:48;100559.06;;;15.87;100.00
22550;BME280;11441;57.164;-2.120;2022-07-01T09:18:16;100554.28;;;16.06;100.00
22550;BME280;11441;57.164;-2.120;2022-07-01T09:20:46;100564.22;;;16.07;100.00
22550;BME280;11441;57.164;-2.120;2022-07-01T09:23:19;100557.47;;;16.00;100.00
22550;BME280;11441;57.164;-2.120;2022-07-01T09:25:48;100563.84;;;16.19;100.00
22550;BME280;11441;57.164;-2.120;2022-07-01T09:28:23;100547.97;;;16.05;100.00
22550;BME280;11441;57.164;-2.120;2022-07-01T09:30:53;100552.34;;;16.13;100.00
22550;BME280;11441;57.164;-2.120;2022-07-01T09:33:28;100547.16;;;16.26;100.00
22550;BME280;11441;57.164;-2.120;2022-07-01T09:35:56;100557.09;;;16.27;100.00
22550;BME280;11441;57.164;-2.120;2022-07-01T09:38:25;100567.78;;;16.47;100.00
22550;BME280;11441;57.164;-2.120;2022-07-01T09:41:03;100563.06;;;16.11;100.00
22550;BME280;11441;57.164;-2.120;2022-07-01T09:43:33;100565.41;;;16.42;100.00
22550;BME280;11441;57.164;-2.120;2022-07-01T09:46:09;100559.00;;;16.81;100.00
22550;BME280;11441;57.164;-2.120;2022-07-01T09:51:05;100540.78;;;16.58;100.00
22550;BME280;11441;57.164;-2.120;2022-07-01T09:53:40;100548.28;;;16.79;100.00
22550;BME280;11441;57.164;-2.120;2022-07-01T09:56:07;100534.03;;;16.52;100.00
22550;BME280;11441;57.164;-2.120;2022-07-01T09:58:34;100533.59;;;16.71;100.00
22550;BME280;11441;57.164;-2.120;2022-07-01T10:01:04;100527.25;;;16.67;100.00
22550;BME280;11441;57.164;-2.120;2022-07-01T10:03:33;100524.06;;;16.76;100.00
22550;BME280;11441;57.164;-2.120;2022-07-01T10:06:08;100534.38;;;16.68;100.00
22550;BME280;11441;57.164;-2.120;2022-07-01T10:08:50;100522.44;;;16.78;100.00
22550;BME280;11441;57.164;-2.120;2022-07-01T10:14:07;100526.81;;;16.83;100.00
22550;BME280;11441;57.164;-2.120;2022-07-01T10:16:35;100538.72;;;16.98;100.00
22550;BME280;11441;57.164;-2.120;2022-07-01T10:19:27;100537.75;;;17.37;100.00
22550;BME280;11441;57.164;-2.120;2022-07-01T10:21:56;100542.16;;;17.27;100.00
22550;BME280;11441;57.164;-2.120;2022-07-01T10:24:26;100533.41;;;17.29;100.00
22550;BME280;11441;57.164;-2.120;2022-07-01T10:27:00;100529.75;;;17.43;100.00
22550;BME280;11441;57.164;-2.120;2022-07-01T10:29:37;100525.66;;;17.65;100.00
22550;BME280;11441;57.164;-2.120;2022-07-01T10:32:25;100532.13;;;17.48;100.00
22550;BME280;11441;57.164;-2.120;2022-07-01T10:35:13;100523.47;;;17.35;100.00
22550;BME280;11441;57.164;-2.120;2022-07-01T10:37:59;100527.88;;;17.25;100.00
22550;BME280;11441;57.164;-2.120;2022-07-01T10:40:46;100531.56;;;17.71;100.00
22550;BME280;11441;57.164;-2.120;2022-07-01T10:43:17;100522.75;;;17.90;100.00
22550;BME280;11441;57.164;-2.120;2022-07-01T10:45:57;100530.09;;;18.15;100.00
22550;BME280;11441;57.164;-2.120;2022-07-01T10:48:25;100528.06;;;18.19;100.00
22550;BME280;11441;57.164;-2.120;2022-07-01T10:50:52;100522.59;;;18.50;100.00
22550;BME280;11441;57.164;-2.120;2022-07-01T10:53:20;100528.09;;;18.57;100.00
22550;BME280;11441;57.164;-2.120;2022-07-01T10:55:49;100518.28;;;18.83;100.00
22550;BME280;11441;57.164;-2.120;2022-07-01T10:58:38;100529.25;;;18.60;100.00
22550;BME280;11441;57.164;-2.120;2022-07-01T11:01:05;100523.22;;;18.65;100.00
22550;BME280;11441;57.164;-2.120;2022-07-01T11:03:37;100524.09;;;18.62;100.00
22550;BME280;11441;57.164;-2.120;2022-07-01T11:06:07;100527.28;;;18.60;100.00
22550;BME280;11441;57.164;-2.120;2022-07-01T11:08:34;100522.69;;;18.77;100.00
22550;BME280;11441;57.164;-2.120;2022-07-01T11:11:02;100523.72;;;18.94;100.00
22550;BME280;11441;57.164;-2.120;2022-07-01T11:13:32;100526.63;;;18.87;100.00
22550;BME280;11441;57.164;-2.120;2022-07-01T11:15:59;100521.13;;;18.76;100.00
22550;BME280;11441;57.164;-2.120;2022-07-01T11:18:27;100522.00;;;19.08;100.00
22550;BME280;11441;57.164;-2.120;2022-07-01T11:21:03;100530.09;;;18.98;100.00
22550;BME280;11441;57.164;-2.120;2022-07-01T11:23:30;100526.47;;;18.98;100.00
22550;BME280;11441;57.164;-2.120;2022-07-01T11:26:02;100530.09;;;18.98;100.00
22550;BME280;11441;57.164;-2.120;2022-07-01T11:28:29;100538.88;;;19.28;100.00
22550;BME280;11441;57.164;-2.120;2022-07-01T11:31:00;100532.88;;;18.95;100.00
22550;BME280;11441;57.164;-2.120;2022-07-01T11:33:27;100535.13;;;18.73;100.00
22550;BME280;11441;57.164;-2.120;2022-07-01T11:35:55;100541.19;;;19.02;100.00
22550;BME280;11441;57.164;-2.120;2022-07-01T11:38:45;100541.75;;;18.86;100.00
22550;BME280;11441;57.164;-2.120;2022-07-01T11:41:31;100537.72;;;19.25;100.00
22550;BME280;11441;57.164;-2.120;2022-07-01T11:43:58;100537.72;;;19.25;100.00
22550;BME280;11441;57.164;-2.120;2022-07-01T11:46:25;100539.69;;;19.28;100.00
22550;BME280;11441;57.164;-2.120;2022-07-01T11:48:52;100539.38;;;19.50;100.00
22550;BME280;11441;57.164;-2.120;2022-07-01T11:51:22;100535.22;;;19.62;100.00
22550;BME280;11441;57.164;-2.120;2022-07-01T11:53:51;100527.94;;;19.40;100.00
22550;BME280;11441;57.164;-2.120;2022-07-01T11:56:29;100526.66;;;19.45;100.00
22550;BME280;11441;57.164;-2.120;2022-07-01T11:58:58;100534.78;;;19.36;100.00
22550;BME280;11441;57.164;-2.120;2022-07-01T12:01:28;100526.72;;;19.41;100.00
22550;BME280;11441;57.164;-2.120;2022-07-01T12:04:00;100535.66;;;19.29;100.00
22550;BME280;11441;57.164;-2.120;2022-07-01T12:06:28;100527.47;;;19.46;100.00
22550;BME280;11441;57.164;-2.120;2022-07-01T12:08:56;100525.50;;;19.43;100.00
22550;BME280;11441;57.164;-2.120;2022-07-01T12:11:25;100521.31;;;19.58;100.00
22550;BME280;11441;57.164;-2.120;2022-07-01T12:13:53;100514.72;;;19.45;100.00
22550;BME280;11441;57.164;-2.120;2022-07-01T12:16:20;100518.16;;;19.83;100.00
22550;BME280;11441;57.164;-2.120;2022-07-01T12:21:22;100511.13;;;19.71;100.00
22550;BME280;11441;57.164;-2.120;2022-07-01T12:24:13;100505.19;;;19.42;100.00
22550;BME280;11441;57.164;-2.120;2022-07-01T12:27:06;100499.31;;;19.33;100.00
22550;BME280;11441;57.164;-2.120;2022-07-01T12:32:05;100491.97;;;19.15;100.00
22550;BME280;11441;57.164;-2.120;2022-07-01T12:34:43;100506.81;;;19.39;100.00
22550;BME280;11441;57.164;-2.120;2022-07-01T12:37:13;100510.72;;;18.80;100.00
22550;BME280;11441;57.164;-2.120;2022-07-01T12:42:40;100508.19;;;18.97;100.00
22550;BME280;11441;57.164;-2.120;2022-07-01T12:45:14;100499.31;;;19.33;100.00
22550;BME280;11441;57.164;-2.120;2022-07-01T12:47:44;100516.72;;;19.44;100.00
22550;BME280;11441;57.164;-2.120;2022-07-01T12:50:19;100510.00;;;19.38;100.00
22550;BME280;11441;57.164;-2.120;2022-07-01T12:53:09;100510.50;;;19.02;100.00
22550;BME280;11441;57.164;-2.120;2022-07-01T12:55:38;100497.75;;;19.01;100.00